Time;durP1;ratioP1;P1;durP2;ratioP2;P2;SDS_P1;SDS_P2;PMS_P1;PMS_P2;Temp;Humidity;BMP_temperature;BMP_pressure;BME280_temperature;BME280_humidity;BME280_pressure;Samples;Min_cycle;Max_cycle;Signal;HPM_P1;HPM_P2
2021/12/30 00:02:03;;;;;;;18.13;14.93;;;11.40;1.00;11.80;100116.00;;;;5035488;28;22040;-84
2021/12/30 00:04:32;;;;;;;18.47;15.70;;;11.40;1.00;217.30;161809.00;;;;5032406;28;20469;-84
2021/12/30 00:07:01;;;;;;;17.63;15.57;;;11.50;1.00;11.90;100104.00;;;;5022228;28;20460;-83
2021/12/30 00:09:29;;;;;;;18.30;14.03;;;11.50;1.00;12.00;100118.00;;;;5030719;28;20462;-85
2021/12/30 00:11:59;;;;;;;15.30;13.70;;;11.60;1.00;12.00;100122.00;;;;5024651;28;20463;-84
2021/12/30 00:14:42;;;;;;;14.97;12.37;;;11.60;1.00;217.30;161894.00;;;;5023665;28;20473;-84
2021/12/30 00:17:10;;;;;;;12.83;11.50;;;11.70;1.00;12.10;100123.00;;;;5029647;28;20525;-84
2021/12/30 00:19:39;;;;;;;15.50;13.90;;;11.60;1.00;217.30;161916.00;;;;5042862;28;20495;-84
2021/12/30 00:22:08;;;;;;;13.83;12.37;;;11.70;1.00;12.10;100137.00;;;;5048259;28;20458;-82
2021/12/30 00:24:36;;;;;;;11.60;10.50;;;11.80;1.00;12.10;100149.00;;;;5047717;28;20455;-82
2021/12/30 00:27:05;;;;;;;13.00;10.83;;;11.70;1.00;12.10;100155.00;;;;5048874;28;20425;-84
2021/12/30 00:29:33;;;;;;;11.27;10.10;;;11.70;1.00;12.10;100173.00;;;;5051929;28;20476;-81
2021/12/30 00:32:04;;;;;;;11.50;9.83;;;11.70;1.00;12.10;100171.00;;;;5042923;28;20461;-83
2021/12/30 00:34:32;;;;;;;11.40;9.77;;;11.90;1.00;12.10;100178.00;;;;5048106;28;20463;-85
2021/12/30 00:37:01;;;;;;;10.47;9.37;;;11.80;1.00;12.20;100188.00;;;;5052915;28;20555;-85
2021/12/30 00:39:29;;;;;;;9.50;8.60;;;11.90;1.00;217.30;161938.00;;;;5038856;28;20530;-83
2021/12/30 00:41:58;;;;;;;8.90;8.00;;;11.90;1.00;12.20;100147.00;;;;5030434;28;20450;-84
2021/12/30 00:44:26;;;;;;;10.13;9.23;;;11.90;1.00;12.20;100175.00;;;;5043578;28;20556;-83
2021/12/30 00:46:57;;;;;;;9.77;8.87;;;11.90;1.00;12.20;100165.00;;;;5040794;28;20450;-84
2021/12/30 00:49:27;;;;;;;11.30;7.83;;;11.90;1.00;12.10;100167.00;;;;5040477;28;20479;-83
2021/12/30 00:51:56;;;;;;;8.60;7.70;;;11.90;1.00;12.10;100181.00;;;;5038266;28;20525;-83
2021/12/30 00:54:45;;;;;;;11.07;8.47;;;11.80;1.00;12.20;100179.00;;;;5034140;28;20487;-84
2021/12/30 00:57:14;;;;;;;8.70;7.67;;;11.80;1.00;12.10;100187.00;;;;5034920;28;20481;-84
2021/12/30 00:59:44;;;;;;;8.77;7.67;;;11.90;1.00;12.20;100199.00;;;;5033919;28;20522;-84
2021/12/30 01:02:13;;;;;;;11.80;7.43;;;11.90;1.00;12.20;100203.00;;;;5032672;28;20461;-85
2021/12/30 01:04:48;;;;;;;7.30;6.30;;;11.90;1.00;12.10;100193.00;;;;5047335;28;20478;-83
2021/12/30 01:07:16;;;;;;;8.93;7.33;;;11.80;1.00;12.10;100206.00;;;;5029539;28;20485;-85
2021/12/30 01:09:48;;;;;;;7.83;6.90;;;11.80;1.00;217.30;161928.00;;;;5032068;28;21032;-84
2021/12/30 01:12:24;;;;;;;7.17;6.27;;;11.90;1.00;217.30;161888.00;;;;5049516;28;20474;-84
2021/12/30 01:14:53;;;;;;;11.23;6.40;;;11.80;1.00;12.10;100218.00;;;;5035075;28;20457;-84
2021/12/30 01:17:40;;;;;;;6.20;5.60;;;11.90;1.00;12.20;100223.00;;;;5032602;28;20481;-83
2021/12/30 01:20:16;;;;;;;8.13;5.47;;;11.80;1.00;12.20;100217.00;;;;5041611;28;20533;-83
2021/12/30 01:22:49;;;;;;;8.57;6.03;;;11.90;1.00;12.20;100224.00;;;;5040613;28;20537;-84
2021/12/30 01:25:18;;;;;;;7.00;5.00;;;11.90;1.00;12.20;100245.00;;;;5037128;28;20885;-84
2021/12/30 01:27:49;;;;;;;6.60;4.97;;;11.90;1.00;12.20;100228.00;;;;5056220;28;20480;-83
2021/12/30 01:30:24;;;;;;;6.43;4.87;;;11.90;1.00;12.20;100236.00;;;;5056227;28;20954;-85
2021/12/30 01:32:57;;;;;;;5.20;4.30;;;12.00;1.00;12.20;68970.00;;;;5040518;28;20459;-84
2021/12/30 01:35:32;;;;;;;6.30;4.30;;;11.90;1.00;12.20;100250.00;;;;5035409;28;20475;-83
2021/12/30 01:38:05;;;;;;;8.67;4.60;;;11.90;1.00;12.20;100255.00;;;;5036566;28;20477;-85
2021/12/30 01:43:43;;;;;;;3.30;2.80;;;11.90;1.00;12.30;100253.00;;;;5038730;28;20433;-83
2021/12/30 01:46:12;;;;;;;5.60;2.80;;;11.90;1.00;12.20;100246.00;;;;5046933;28;21004;-84
2021/12/30 01:48:40;;;;;;;3.90;2.73;;;11.90;1.00;12.20;100263.00;;;;5055530;28;20474;-83
2021/12/30 01:51:18;;;;;;;3.80;2.00;;;11.90;1.00;12.20;100279.00;;;;5035412;28;20758;-82
2021/12/30 01:53:46;;;;;;;4.47;3.13;;;11.90;1.00;12.20;100278.00;;;;5037256;28;20459;-82
2021/12/30 01:56:18;;;;;;;4.83;2.63;;;12.00;1.00;12.20;100288.00;;;;5039692;28;20483;-81
2021/12/30 01:58:46;;;;;;;3.80;2.43;;;11.90;1.00;12.20;100279.00;;;;5040640;28;20536;-83
2021/12/30 02:01:15;;;;;;;3.93;2.30;;;11.90;1.00;12.20;100279.00;;;;5030011;28;20449;-84
2021/12/30 02:03:47;;;;;;;5.40;2.33;;;11.90;1.00;12.20;100289.00;;;;5025493;28;20449;-85
2021/12/30 02:06:19;;;;;;;6.03;2.43;;;11.90;1.00;12.20;100290.00;;;;5031406;28;20468;-83
2021/12/30 02:08:47;;;;;;;6.60;2.20;;;11.90;1.00;12.20;100293.00;;;;5035808;28;20471;-84
2021/12/30 02:11:18;;;;;;;4.40;1.93;;;11.90;1.00;12.20;100301.00;;;;5037846;28;20477;-83
2021/12/30 02:13:49;;;;;;;4.07;1.57;;;11.90;1.00;12.20;100288.00;;;;5029158;28;20440;-85
2021/12/30 02:16:20;;;;;;;6.20;2.03;;;11.90;1.00;12.20;100313.00;;;;5022390;28;20476;-85
2021/12/30 02:18:49;;;;;;;3.30;1.37;;;11.90;1.00;12.20;100290.00;;;;5048745;28;20539;-85
2021/12/30 02:21:19;;;;;;;5.63;1.60;;;11.90;1.00;12.30;100308.00;;;;5037256;28;20493;-85
2021/12/30 02:23:48;;;;;;;6.13;1.40;;;12.00;1.00;12.30;100319.00;;;;5023891;28;20469;-85
2021/12/30 02:26:19;;;;;;;7.53;1.93;;;12.10;1.00;12.30;100313.00;;;;5019791;28;20464;-85
2021/12/30 02:28:47;;;;;;;7.00;1.93;;;12.00;1.00;12.30;100303.00;;;;5020992;28;20474;-84
2021/12/30 02:31:19;;;;;;;7.23;1.83;;;12.00;1.00;12.40;100311.00;;;;5025917;28;20448;-85
2021/12/30 02:33:49;;;;;;;10.57;2.40;;;12.10;1.00;12.40;100312.00;;;;5022578;28;20471;-85
2021/12/30 02:36:23;;;;;;;5.73;1.87;;;12.10;1.00;12.40;100321.00;;;;5037237;28;21001;-85
2021/12/30 02:38:52;;;;;;;7.77;2.20;;;12.20;1.00;12.40;100317.00;;;;5021918;28;20480;-82
2021/12/30 02:41:20;;;;;;;5.40;1.70;;;12.10;1.00;12.50;100319.00;;;;5024757;28;20969;-84
2021/12/30 02:43:50;;;;;;;6.83;2.37;;;12.20;1.00;12.50;100322.00;;;;5027242;28;20468;-82
2021/12/30 02:46:23;;;;;;;7.70;2.50;;;12.20;1.00;12.50;100323.00;;;;5036158;28;20480;-82
2021/12/30 02:48:54;;;;;;;6.00;2.13;;;12.10;1.00;12.40;100304.00;;;;5029390;28;20567;-83
2021/12/30 02:51:25;;;;;;;8.27;2.80;;;12.10;1.00;12.40;100310.00;;;;5047816;28;21092;-83
2021/12/30 02:53:54;;;;;;;5.40;2.10;;;12.10;1.00;12.50;100324.00;;;;5042693;28;20449;-83
2021/12/30 02:56:24;;;;;;;6.50;2.27;;;12.10;1.00;12.40;100332.00;;;;5035111;28;21013;-83
2021/12/30 02:58:53;;;;;;;4.20;1.70;;;12.00;1.00;12.40;100324.00;;;;5042595;28;20503;-83
2021/12/30 03:01:27;;;;;;;5.07;2.30;;;12.00;1.00;12.40;100349.00;;;;5024450;28;20457;-83
2021/12/30 03:03:56;;;;;;;8.60;2.53;;;12.00;1.00;12.40;100362.00;;;;5031325;28;20559;-85
2021/12/30 03:06:27;;;;;;;5.73;2.30;;;12.00;1.00;12.40;100362.00;;;;5042123;28;20461;-83
2021/12/30 03:08:56;;;;;;;8.03;2.47;;;12.00;1.00;12.40;100362.00;;;;5041578;28;20511;-82
2021/12/30 03:11:27;;;;;;;7.40;2.40;;;12.00;1.00;12.40;100372.00;;;;5044681;28;20532;-83
2021/12/30 03:13:56;;;;;;;6.97;2.70;;;12.00;1.00;12.40;100361.00;;;;5039813;28;20480;-83
2021/12/30 03:16:28;;;;;;;5.20;1.83;;;12.10;1.00;12.40;100353.00;;;;5045655;28;20476;-83
2021/12/30 03:18:57;;;;;;;6.13;2.00;;;12.10;1.00;12.40;100359.00;;;;5031152;28;20529;-84
2021/12/30 03:21:27;;;;;;;8.10;2.30;;;12.10;1.00;12.40;100368.00;;;;5039774;28;20446;-84
2021/12/30 03:24:01;;;;;;;9.33;2.90;;;12.10;1.00;12.50;100372.00;;;;5042192;28;20466;-83
2021/12/30 03:26:31;;;;;;;6.80;2.37;;;12.10;1.00;12.50;100364.00;;;;5046927;28;20488;-83
2021/12/30 03:29:00;;;;;;;7.70;2.60;;;12.20;1.00;12.60;100371.00;;;;5047175;28;20476;-83
2021/12/30 03:31:29;;;;;;;6.77;2.20;;;12.20;1.00;12.60;100368.00;;;;5048703;28;20468;-82
2021/12/30 03:33:58;;;;;;;8.23;2.07;;;12.30;1.00;12.60;100370.00;;;;5047260;28;20429;-82
2021/12/30 03:36:27;;;;;;;3.63;2.00;;;12.40;1.00;12.70;100375.00;;;;5051546;28;20541;-82
2021/12/30 03:38:57;;;;;;;6.67;2.17;;;12.50;1.00;12.70;100374.00;;;;5069010;28;20500;-83
2021/12/30 03:41:28;;;;;;;4.70;2.33;;;12.40;1.00;12.60;100375.00;;;;5066983;28;20477;-83
2021/12/30 03:44:00;;;;;;;10.00;2.60;;;12.40;1.00;12.60;100390.00;;;;5056569;28;20544;-83
2021/12/30 03:46:29;;;;;;;6.43;2.87;;;12.30;1.00;12.60;100384.00;;;;5047562;28;20468;-83
2021/12/30 03:48:58;;;;;;;4.80;2.23;;;12.30;1.00;12.70;100384.00;;;;5031523;28;20539;-82
2021/12/30 03:51:30;;;;;;;6.57;2.87;;;12.40;1.00;12.70;100391.00;;;;5046651;28;20884;-83
2021/12/30 03:53:59;;;;;;;8.40;2.97;;;12.40;1.00;12.80;100388.00;;;;5031284;28;20465;-83
2021/12/30 03:56:30;;;;;;;8.10;2.90;;;12.60;1.00;12.80;100388.00;;;;5034198;28;20499;-83
2021/12/30 03:58:59;;;;;;;9.57;3.23;;;12.50;1.00;12.80;100405.00;;;;5032225;28;20480;-83
2021/12/30 04:01:28;;;;;;;7.63;3.70;;;12.50;1.00;12.80;100399.00;;;;5026945;28;20457;-83
2021/12/30 04:04:00;;;;;;;11.90;5.23;;;12.50;1.00;12.90;100399.00;;;;5031796;28;20528;-83
2021/12/30 04:06:30;;;;;;;11.60;8.23;;;12.70;1.00;12.90;100401.00;;;;5042266;28;20468;-83
2021/12/30 04:08:59;;;;;;;46.90;29.80;;;12.90;1.00;12.90;100388.00;;;;5046200;28;20488;-83
2021/12/30 04:11:33;;;;;;;40.87;27.27;;;12.70;1.00;12.90;100400.00;;;;5029085;28;20487;-83
2021/12/30 04:14:03;;;;;;;32.30;23.37;;;12.60;1.00;12.90;100396.00;;;;5047696;28;21047;-83
2021/12/30 04:16:33;;;;;;;25.07;12.67;;;12.70;1.00;12.90;100383.00;;;;5031798;28;20536;-84
2021/12/30 04:19:02;;;;;;;11.83;6.87;;;12.60;1.00;12.90;100388.00;;;;5040094;28;20495;-83
2021/12/30 04:21:32;;;;;;;8.67;5.17;;;12.60;1.00;12.80;100386.00;;;;5034748;28;20851;-83
2021/12/30 04:24:01;;;;;;;5.50;2.50;;;12.50;1.00;12.80;100394.00;;;;5028570;28;20464;-83
2021/12/30 04:26:30;;;;;;;9.00;2.77;;;12.50;1.00;12.80;100389.00;;;;5026701;28;20833;-83
2021/12/30 04:28:58;;;;;;;6.23;2.40;;;12.50;1.00;12.80;100413.00;;;;5023821;28;20505;-83
2021/12/30 04:31:27;;;;;;;8.30;2.70;;;12.50;1.00;217.30;162223.00;;;;5024842;28;20465;-83
2021/12/30 04:33:55;;;;;;;6.13;2.00;;;12.50;1.00;12.90;100417.00;;;;5024898;28;20506;-83
2021/12/30 04:36:24;;;;;;;7.20;2.40;;;12.50;1.00;12.90;100415.00;;;;5041595;28;20489;-83
2021/12/30 04:38:53;;;;;;;8.20;2.20;;;12.60;1.00;12.90;100409.00;;;;5028687;28;20524;-83
2021/12/30 04:41:22;;;;;;;7.07;2.80;;;12.60;1.00;13.00;100420.00;;;;5025405;28;20453;-83
2021/12/30 04:43:50;;;;;;;6.37;2.20;;;12.60;1.00;13.00;100416.00;;;;5047293;28;20491;-83
2021/12/30 04:46:18;;;;;;;6.77;2.13;;;12.60;1.00;13.00;100415.00;;;;5035827;28;20533;-83
2021/12/30 04:48:47;;;;;;;8.37;2.27;;;12.70;1.00;13.00;100417.00;;;;5038580;28;20904;-84
2021/12/30 04:51:16;;;;;;;6.03;2.30;;;12.70;1.00;13.00;100412.00;;;;5040520;28;20441;-83
2021/12/30 04:53:44;;;;;;;9.07;2.20;;;12.70;1.00;13.00;100414.00;;;;5043055;28;20454;-83
2021/12/30 04:56:14;;;;;;;9.57;2.63;;;12.70;1.00;13.00;100418.00;;;;5032046;28;20460;-83
2021/12/30 04:58:43;;;;;;;6.80;1.90;;;12.60;1.00;13.00;100422.00;;;;5027609;28;20535;-83
2021/12/30 05:01:11;;;;;;;5.87;2.57;;;12.70;1.00;13.00;100413.00;;;;5028586;28;20475;-83
2021/12/30 05:03:40;;;;;;;6.83;2.30;;;12.70;1.00;13.00;100435.00;;;;5024216;28;20463;-84
2021/12/30 05:06:08;;;;;;;5.13;2.67;;;12.60;1.00;13.00;100420.00;;;;5023222;28;20457;-84
2021/12/30 05:08:36;;;;;;;4.83;2.23;;;12.70;1.00;13.00;100428.00;;;;5023801;28;20572;-84
2021/12/30 05:11:05;;;;;;;7.13;2.50;;;12.80;1.00;13.00;100424.00;;;;5024750;28;20552;-84
2021/12/30 05:13:35;;;;;;;7.83;2.90;;;12.70;1.00;13.00;100423.00;;;;5021532;28;20460;-84
2021/12/30 05:16:04;;;;;;;5.20;2.60;;;12.70;1.00;13.00;100407.00;;;;5023783;28;20461;-84
2021/12/30 05:18:34;;;;;;;6.00;2.27;;;12.60;1.00;12.90;100417.00;;;;5038633;28;20484;-82
2021/12/30 05:21:05;;;;;;;7.20;2.60;;;12.50;1.00;12.80;100412.00;;;;5028316;28;20445;-82
2021/12/30 05:23:33;;;;;;;9.10;3.20;;;12.50;1.00;12.70;100406.00;;;;5034032;28;20469;-83
2021/12/30 05:26:02;;;;;;;7.83;2.37;;;12.60;1.00;12.70;100413.00;;;;5043611;28;20579;-83
2021/12/30 05:28:30;;;;;;;6.90;2.00;;;12.60;1.00;12.70;100415.00;;;;5027919;28;20492;-83
2021/12/30 05:31:00;;;;;;;7.30;2.47;;;12.30;1.00;12.60;100403.00;;;;5027134;28;21053;-84
2021/12/30 05:33:29;;;;;;;11.13;2.70;;;12.40;1.00;12.50;100418.00;;;;5026817;28;20449;-83
2021/12/30 05:35:57;;;;;;;9.23;2.27;;;12.20;1.00;12.50;100403.00;;;;5029901;28;20470;-83
2021/12/30 05:38:26;;;;;;;9.63;2.27;;;12.20;1.00;12.40;100415.00;;;;5041118;28;21315;-83
2021/12/30 05:40:54;;;;;;;10.73;2.80;;;12.10;1.00;12.40;100428.00;;;;5032996;28;20496;-83
2021/12/30 05:43:22;;;;;;;7.53;3.00;;;12.10;1.00;12.40;100433.00;;;;5044230;28;20461;-83
2021/12/30 05:45:51;;;;;;;10.47;2.73;;;12.10;1.00;217.30;162045.00;;;;5027666;28;20460;-83
2021/12/30 05:48:21;;;;;;;6.33;2.17;;;12.20;1.00;12.50;100436.00;;;;5027756;28;20478;-83
2021/12/30 05:50:49;;;;;;;7.00;2.37;;;12.20;1.00;12.50;100441.00;;;;5061590;28;20464;-83
2021/12/30 05:53:17;;;;;;;6.93;2.47;;;12.10;1.00;12.50;100456.00;;;;5034728;28;20469;-83
2021/12/30 05:55:46;;;;;;;11.47;3.07;;;12.20;1.00;12.40;100447.00;;;;5045068;28;20463;-83
2021/12/30 05:58:14;;;;;;;10.40;2.57;;;12.10;1.00;12.40;100436.00;;;;5064182;28;20487;-83
2021/12/30 06:00:44;;;;;;;7.47;3.03;;;12.10;1.00;12.50;100440.00;;;;5033074;28;20575;-84
2021/12/30 06:03:12;;;;;;;8.90;2.70;;;12.10;1.00;12.40;100463.00;;;;5045670;28;21184;-83
2021/12/30 06:05:42;;;;;;;9.50;3.40;;;12.20;1.00;12.50;100474.00;;;;5033530;28;20456;-82
2021/12/30 06:08:10;;;;;;;10.10;3.00;;;12.10;1.00;12.50;100475.00;;;;5030452;28;20504;-83
2021/12/30 06:10:40;;;;;;;13.80;2.80;;;12.10;1.00;12.50;100467.00;;;;5029951;28;20477;-82
2021/12/30 06:13:08;;;;;;;15.13;3.27;;;12.10;1.00;12.40;100475.00;;;;5034599;28;20461;-83
2021/12/30 06:15:37;;;;;;;17.60;5.10;;;12.10;1.00;12.40;100455.00;;;;5044143;28;20465;-83
2021/12/30 06:18:06;;;;;;;11.80;3.13;;;12.10;1.00;12.40;100470.00;;;;5037752;28;21482;-83
2021/12/30 06:20:34;;;;;;;8.63;2.97;;;12.10;1.00;12.40;100461.00;;;;5036714;28;20521;-83
2021/12/30 06:23:04;;;;;;;7.93;2.90;;;12.20;1.00;12.40;69013.00;;;;5039513;28;20463;-82
2021/12/30 06:25:32;;;;;;;15.30;3.93;;;12.10;1.00;12.40;100460.00;;;;5030581;28;20512;-83
2021/12/30 06:28:00;;;;;;;12.03;3.43;;;12.30;1.00;12.50;100458.00;;;;5032358;28;20476;-83
2021/12/30 06:30:29;;;;;;;10.40;3.30;;;12.10;1.00;12.50;100463.00;;;;5037136;28;20461;-83
2021/12/30 06:32:57;;;;;;;10.50;3.50;;;12.10;1.00;12.50;100458.00;;;;5038040;28;20678;-83
2021/12/30 06:35:31;;;;;;;12.00;3.60;;;12.10;1.00;12.60;100469.00;;;;5037675;28;20471;-83
2021/12/30 06:38:00;;;;;;;7.97;3.33;;;12.20;1.00;12.50;100458.00;;;;5038458;28;20479;-83
2021/12/30 06:40:30;;;;;;;6.93;3.07;;;12.20;1.00;12.50;69043.00;;;;5061967;28;20488;-84
2021/12/30 06:42:59;;;;;;;9.00;3.10;;;12.20;1.00;217.30;162098.00;;;;5044201;28;20477;-83
2021/12/30 06:45:27;;;;;;;11.27;3.90;;;12.30;1.00;12.70;100477.00;;;;5056825;28;20452;-85
2021/12/30 06:47:56;;;;;;;8.80;3.33;;;12.40;1.00;12.70;100484.00;;;;5042491;28;20490;-87
2021/12/30 06:50:27;;;;;;;10.27;3.47;;;12.60;1.00;12.80;100477.00;;;;5041534;28;20484;-87
2021/12/30 06:52:55;;;;;;;12.50;3.93;;;12.60;1.00;12.80;100489.00;;;;5060730;28;20452;-84
2021/12/30 06:55:24;;;;;;;9.57;4.07;;;12.50;1.00;12.80;100478.00;;;;5056287;28;20469;-82
2021/12/30 06:57:54;;;;;;;11.03;4.30;;;12.60;1.00;12.80;69106.00;;;;5066621;28;20484;-81
2021/12/30 07:00:22;;;;;;;12.90;4.60;;;12.60;1.00;12.80;100493.00;;;;5045707;28;20471;-82
2021/12/30 07:02:51;;;;;;;12.17;5.17;;;12.50;1.00;12.70;69090.00;;;;5047837;28;20495;-81
2021/12/30 07:05:19;;;;;;;15.03;5.30;;;12.60;1.00;12.70;69064.00;;;;5044979;28;20453;-84
2021/12/30 07:07:48;;;;;;;15.80;6.10;;;12.40;1.00;12.60;69063.00;;;;5039031;28;20478;-86
2021/12/30 07:10:16;;;;;;;12.70;8.23;;;12.40;1.00;12.60;69054.00;;;;5051575;28;20465;-86
2021/12/30 07:12:45;;;;;;;10.23;5.90;;;12.30;1.00;217.30;162082.00;;;;5043086;28;20472;-86
2021/12/30 07:15:18;;;;;;;15.30;7.60;;;12.20;1.00;12.40;69024.00;;;;5040679;28;20457;-85
2021/12/30 07:17:46;;;;;;;14.23;7.53;;;12.20;1.00;12.40;69024.00;;;;5059511;28;20493;-84
2021/12/30 07:20:16;;;;;;;14.63;7.87;;;12.10;1.00;12.40;100493.00;;;;5051759;28;20492;-82
2021/12/30 07:22:44;;;;;;;15.93;6.77;;;12.10;1.00;12.40;68999.00;;;;5050564;28;20484;-87
2021/12/30 07:25:17;;;;;;;15.17;7.20;;;12.10;1.00;217.30;162019.00;;;;5059702;28;20519;-83
2021/12/30 07:27:48;;;;;;;14.17;7.90;;;12.30;1.00;12.40;100476.00;;;;5050583;28;20474;-85
2021/12/30 07:30:20;;;;;;;15.97;8.37;;;12.10;1.00;12.40;69013.00;;;;5060747;28;20484;-83
2021/12/30 07:32:49;;;;;;;15.27;8.20;;;12.10;1.00;52.70;162041.00;;;;5037025;28;20453;-85
2021/12/30 07:35:20;;;;;;;14.83;8.50;;;12.10;1.00;12.50;69032.00;;;;5040662;28;20464;-82
2021/12/30 07:37:52;;;;;;;12.37;8.40;;;12.10;1.00;12.60;69049.00;;;;5042610;28;20477;-82
2021/12/30 07:40:21;;;;;;;15.40;7.10;;;12.40;1.00;12.70;69068.00;;;;5049570;28;20460;-82
2021/12/30 07:42:50;;;;;;;10.67;7.20;;;12.30;1.00;12.80;100504.00;;;;5054958;28;20552;-83
2021/12/30 07:45:20;;;;;;;12.43;7.20;;;12.40;1.00;12.80;100485.00;;;;5064909;28;20476;-83
2021/12/30 07:47:51;;;;;;;10.93;6.77;;;12.50;1.00;12.70;69084.00;;;;5033680;28;20485;-86
2021/12/30 07:50:19;;;;;;;14.00;6.50;;;12.70;1.00;12.70;100507.00;;;;5030043;28;20485;-85
2021/12/30 07:52:48;;;;;;;9.90;6.07;;;12.50;1.00;217.30;162201.00;;;;5034760;28;20504;-89
2021/12/30 07:55:17;;;;;;;10.50;6.10;;;12.50;1.00;217.30;162217.00;;;;5046964;28;20441;-89
2021/12/30 07:57:46;;;;;;;9.00;6.17;;;12.50;1.00;12.90;100518.00;;;;5048671;28;20492;-88
2021/12/30 08:00:18;;;;;;;8.37;5.50;;;12.60;1.00;12.90;100517.00;;;;5043051;28;20480;-81
2021/12/30 08:02:47;;;;;;;9.00;5.17;;;12.70;1.00;217.30;162261.00;;;;5045125;28;20433;-89
2021/12/30 08:05:19;;;;;;;6.87;5.07;;;12.70;1.00;217.30;162277.00;;;;5058741;28;20467;-83
2021/12/30 08:07:48;;;;;;;6.43;4.43;;;12.80;1.00;217.30;162324.00;;;;5044906;28;20469;-82
2021/12/30 08:10:19;;;;;;;6.03;4.23;;;12.70;1.00;217.30;162324.00;;;;5048894;28;20907;-85
2021/12/30 08:12:49;;;;;;;5.67;4.37;;;12.80;1.00;13.10;69184.00;;;;5051505;28;20467;-81
2021/12/30 08:15:20;;;;;;;8.40;4.40;;;12.90;1.00;13.20;69188.00;;;;5051108;28;20503;-84
2021/12/30 08:17:50;;;;;;;4.97;3.97;;;12.90;1.00;13.20;100471.00;;;;5048895;28;20484;-86
2021/12/30 08:20:22;;;;;;;6.33;3.63;;;12.90;1.00;13.30;69226.00;;;;5040213;28;20479;-87
2021/12/30 08:22:52;;;;;;;3.93;3.37;;;13.10;1.00;13.40;69239.00;;;;5037307;28;20467;-85
2021/12/30 08:25:22;;;;;;;4.03;3.00;;;13.20;1.00;13.40;69245.00;;;;5033568;28;20460;-83
2021/12/30 08:27:51;;;;;;;3.83;3.07;;;13.20;1.00;13.50;100520.00;;;;5037464;28;20483;-85
2021/12/30 08:30:22;;;;;;;4.47;2.70;;;13.30;1.00;13.60;69275.00;;;;5056422;28;20508;-84
2021/12/30 08:32:51;;;;;;;4.90;2.70;;;13.40;1.00;13.70;69299.00;;;;5047091;28;20457;-83
2021/12/30 08:35:22;;;;;;;5.03;2.53;;;13.40;1.00;13.70;100524.00;;;;5046220;28;20480;-86
2021/12/30 08:37:51;;;;;;;3.33;2.47;;;13.50;1.00;13.70;69319.00;;;;5051063;28;20518;-83
2021/12/30 08:40:20;;;;;;;3.43;2.40;;;13.60;1.00;217.30;162644.00;;;;5042142;28;20476;-83
2021/12/30 08:42:49;;;;;;;5.20;2.80;;;13.60;1.00;52.70;162660.00;;;;5055501;28;20525;-84
2021/12/30 08:45:18;;;;;;;3.23;2.00;;;13.60;1.00;13.80;100497.00;;;;5037715;28;20461;-85
2021/12/30 08:47:48;;;;;;;5.17;2.57;;;13.80;1.00;13.90;69362.00;;;;5029171;28;20477;-83
2021/12/30 08:50:18;;;;;;;2.33;1.60;;;13.70;1.00;14.00;100531.00;;;;5025416;28;21400;-84
2021/12/30 08:52:48;;;;;;;2.33;1.97;;;13.80;1.00;14.10;100551.00;;;;5026127;28;20477;-84
2021/12/30 08:55:17;;;;;;;2.73;1.67;;;13.90;1.00;14.10;100550.00;;;;5046799;28;20449;-84
2021/12/30 08:57:48;;;;;;;3.43;1.87;;;14.00;1.00;14.20;100550.00;;;;5022133;28;20471;-82
2021/12/30 09:00:23;;;;;;;2.47;1.67;;;14.00;1.00;14.20;100564.00;;;;5023524;28;20476;-84
2021/12/30 09:02:53;;;;;;;3.33;2.37;;;14.10;1.00;14.30;100573.00;;;;5026535;28;20557;-80
2021/12/30 09:05:22;;;;;;;2.20;1.40;;;14.10;1.00;14.40;100580.00;;;;5043510;28;20728;-82
2021/12/30 09:07:52;;;;;;;2.17;1.90;;;14.20;1.00;217.30;162935.00;;;;5053189;28;20552;-82
2021/12/30 09:10:21;;;;;;;1.93;1.57;;;14.30;1.00;14.50;100570.00;;;;5047050;28;20449;-82
2021/12/30 09:12:53;;;;;;;2.47;1.40;;;14.30;1.00;14.50;100569.00;;;;5050303;28;20524;-81
2021/12/30 09:15:24;;;;;;;1.60;1.30;;;14.30;1.00;14.50;100576.00;;;;5040898;28;20491;-81
2021/12/30 09:17:55;;;;;;;2.10;1.60;;;14.30;1.00;14.50;69486.00;;;;5054443;28;20493;-83
2021/12/30 09:20:24;;;;;;;1.87;1.20;;;14.30;1.00;14.50;100570.00;;;;5016471;28;20473;-81
2021/12/30 09:22:54;;;;;;;2.60;1.50;;;14.40;1.00;14.60;100577.00;;;;5037671;28;20540;-83
2021/12/30 09:25:24;;;;;;;1.80;1.10;;;14.40;1.00;14.60;100591.00;;;;5022789;28;20460;-82
2021/12/30 09:27:55;;;;;;;2.10;1.13;;;14.50;1.00;14.70;100577.00;;;;5048010;28;20552;-83
2021/12/30 09:30:25;;;;;;;2.00;1.40;;;14.50;1.00;14.80;100599.00;;;;5020691;28;20460;-83
2021/12/30 09:32:59;;;;;;;2.63;1.73;;;14.60;1.00;14.90;100590.00;;;;5018497;28;20536;-83
2021/12/30 09:35:29;;;;;;;2.70;1.10;;;14.70;1.00;14.90;100605.00;;;;5017359;28;20950;-84
2021/12/30 09:37:58;;;;;;;3.30;1.40;;;14.80;1.00;15.10;100606.00;;;;5018137;28;20511;-84
2021/12/30 09:40:27;;;;;;;2.10;1.20;;;14.80;1.00;52.70;163263.00;;;;5015114;28;20485;-83
2021/12/30 09:43:04;;;;;;;1.40;0.90;;;14.90;1.00;15.20;100611.00;;;;5024426;28;20453;-82
2021/12/30 09:45:36;;;;;;;1.33;0.80;;;15.00;1.00;15.30;100596.00;;;;5023490;28;20456;-83
2021/12/30 09:48:09;;;;;;;1.30;0.90;;;15.00;1.00;15.30;100455.00;;;;5025035;28;20503;-83
2021/12/30 09:50:41;;;;;;;1.30;0.80;;;15.10;1.00;15.30;100619.00;;;;5025583;28;20995;-83
2021/12/30 09:53:11;;;;;;;1.70;0.90;;;15.10;1.00;217.30;163308.00;;;;5031144;28;20437;-83
2021/12/30 09:55:39;;;;;;;1.47;1.00;;;15.10;1.00;15.30;100604.00;;;;5055460;28;20854;-83
2021/12/30 09:58:09;;;;;;;3.20;1.10;;;15.20;1.00;15.40;100608.00;;;;5041525;28;21019;-83
2021/12/30 10:00:38;;;;;;;2.07;1.40;;;15.20;1.00;15.50;100605.00;;;;5029663;28;20476;-84
2021/12/30 10:03:08;;;;;;;1.17;0.67;;;15.30;1.00;15.60;100602.00;;;;5022892;28;20492;-83
2021/12/30 10:05:40;;;;;;;1.37;0.70;;;15.50;1.00;15.70;100615.00;;;;5028522;28;20712;-84
2021/12/30 10:08:14;;;;;;;1.50;1.10;;;15.50;1.00;15.90;100623.00;;;;5041795;28;20481;-83
2021/12/30 10:10:45;;;;;;;1.30;0.80;;;15.70;1.00;16.00;100626.00;;;;5036817;28;21056;-84
2021/12/30 10:13:24;;;;;;;1.67;0.80;;;15.80;1.00;16.00;100628.00;;;;5028761;28;20459;-84
2021/12/30 10:15:59;;;;;;;2.20;1.07;;;15.80;1.00;16.00;100610.00;;;;5027953;28;20470;-83
2021/12/30 10:18:44;;;;;;;1.20;0.73;;;15.80;1.00;16.00;100618.00;;;;5025945;28;20477;-86
2021/12/30 10:21:15;;;;;;;1.10;0.60;;;15.80;1.00;52.70;163643.00;;;;5024734;28;20464;-86
2021/12/30 10:23:46;;;;;;;1.20;0.70;;;15.90;1.00;16.00;69833.00;;;;5022432;28;20448;-85
2021/12/30 10:26:14;;;;;;;1.53;0.70;;;15.90;1.00;16.10;100622.00;;;;5030512;28;20826;-84
2021/12/30 10:28:44;;;;;;;1.30;0.80;;;15.90;1.00;16.20;100630.00;;;;5036171;28;20485;-85
2021/12/30 10:31:23;;;;;;;1.63;0.60;;;16.00;1.00;16.30;100617.00;;;;5038964;28;20465;-84
2021/12/30 10:33:57;;;;;;;1.20;0.70;;;16.10;1.00;16.30;100623.00;;;;5053692;28;20461;-85
2021/12/30 10:36:29;;;;;;;1.10;0.80;;;16.40;1.00;16.30;100614.00;;;;5023836;28;20453;-86
2021/12/30 10:39:17;;;;;;;1.00;0.60;;;16.20;1.00;16.40;100626.00;;;;5033176;28;20484;-86
2021/12/30 10:41:47;;;;;;;1.50;0.70;;;16.30;1.00;217.30;163749.00;;;;5054155;28;20460;-86
2021/12/30 10:44:16;;;;;;;1.20;0.60;;;16.20;1.00;16.30;100639.00;;;;5026243;28;20492;-84
2021/12/30 10:46:46;;;;;;;1.40;0.70;;;16.20;1.00;217.30;163723.00;;;;5027954;28;20454;-84
2021/12/30 10:49:27;;;;;;;1.20;0.80;;;16.30;1.00;16.30;100637.00;;;;5024883;28;20486;-84
2021/12/30 10:51:59;;;;;;;1.30;0.80;;;16.20;1.00;16.40;100622.00;;;;5023505;28;20536;-83
2021/12/30 10:54:30;;;;;;;1.30;0.70;;;16.20;1.00;16.40;100631.00;;;;5025447;28;20452;-85
2021/12/30 10:57:06;;;;;;;1.30;0.70;;;16.20;1.00;16.60;100637.00;;;;5040219;28;20430;-83
2021/12/30 10:59:37;;;;;;;1.20;0.70;;;16.40;1.00;16.60;100629.00;;;;5061935;28;20479;-84
2021/12/30 11:02:09;;;;;;;1.37;0.93;;;16.50;1.00;16.80;100633.00;;;;5043260;28;20446;-84
2021/12/30 11:04:42;;;;;;;1.20;0.80;;;16.60;1.00;16.80;100628.00;;;;5029923;28;20557;-85
2021/12/30 11:07:16;;;;;;;1.80;0.67;;;16.60;1.00;16.70;100637.00;;;;5033079;28;20453;-85
2021/12/30 11:09:50;;;;;;;1.10;0.70;;;16.60;1.00;16.80;100634.00;;;;5038560;28;20472;-85